Time;durP1;ratioP1;P1;durP2;ratioP2;P2;SDS_P1;SDS_P2;PMS_P1;PMS_P2;Temp;Humidity;BMP_temperature;BMP_pressure;BME280_temperature;BME280_humidity;BME280_pressure;Samples;Min_cycle;Max_cycle;Signal;HPM_P1;HPM_P2
2022/10/29 00:02:18;;;;;;;;;;;21.10;98.70;;;;;;4939603;29;19922;-66
2022/10/29 00:04:44;;;;;;;;;;;20.80;98.50;;;;;;4923851;29;19926;-67
2022/10/29 00:07:09;;;;;;;;;;;20.60;98.50;;;;;;4939847;29;19930;-66
2022/10/29 00:09:35;;;;;;;;;;;20.60;98.30;;;;;;4939705;29;19956;-68
2022/10/29 00:12:01;;;;;;;;;;;20.50;98.40;;;;;;4938107;29;20018;-68
2022/10/29 00:14:26;;;;;;;;;;;20.70;98.50;;;;;;4905414;29;19927;-67
2022/10/29 00:16:52;;;;;;;;;;;20.50;98.40;;;;;;4921022;29;19926;-68
2022/10/29 00:19:17;;;;;;;;;;;20.90;98.50;;;;;;4921341;29;19975;-67
2022/10/29 00:21:43;;;;;;;;;;;20.80;98.40;;;;;;4935030;29;19953;-69
2022/10/29 00:24:09;;;;;;;;;;;20.50;98.60;;;;;;4955719;29;19926;-68
2022/10/29 00:26:35;;;;;;;;;;;20.50;98.40;;;;;;4908324;29;20009;-68
2022/10/29 00:29:00;;;;;;;;;;;20.80;98.20;;;;;;4923348;29;19933;-68
2022/10/29 00:31:26;;;;;;;;;;;21.10;98.80;;;;;;4939790;29;19927;-67
2022/10/29 00:33:52;;;;;;;;;;;20.40;98.60;;;;;;4939246;29;19926;-67
2022/10/29 00:36:18;;;;;;;;;;;21.20;98.80;;;;;;4939695;29;19934;-68
2022/10/29 00:38:44;;;;;;;;;;;20.60;98.10;;;;;;4917207;29;20013;-68
2022/10/29 00:41:12;;;;;;;;;;;20.40;98.30;;;;;;4923805;29;20308;-68
2022/10/29 00:43:38;;;;;;;;;;;20.40;98.30;;;;;;4955443;29;19933;-68
2022/10/29 00:46:04;;;;;;;;;;;20.50;98.10;;;;;;4923728;29;19930;-67
2022/10/29 00:48:30;;;;;;;;;;;20.80;98.40;;;;;;4920735;29;19935;-67
2022/10/29 00:50:56;;;;;;;;;;;21.00;98.70;;;;;;4904701;29;19927;-68
2022/10/29 00:53:23;;;;;;;;;;;20.70;98.40;;;;;;4937589;29;20021;-67
2022/10/29 00:55:49;;;;;;;;;;;20.50;98.10;;;;;;4920685;29;20400;-68
2022/10/29 00:58:15;;;;;;;;;;;18.80;97.90;;;;;;4909241;29;19927;-67
2022/10/29 01:00:41;;;;;;;;;;;20.50;98.20;;;;;;4956697;28;19926;-68
2022/10/29 01:03:06;;;;;;;;;;;20.60;98.30;;;;;;4956134;29;20288;-68
2022/10/29 01:05:32;;;;;;;;;;;20.70;98.40;;;;;;4939457;29;19926;-68
2022/10/29 01:07:58;;;;;;;;;;;20.60;98.10;;;;;;4938315;29;19933;-67
2022/10/29 01:10:30;;;;;;;;;;;20.30;98.00;;;;;;4956538;29;19926;-67
2022/10/29 01:12:56;;;;;;;;;;;20.30;98.00;;;;;;4939379;29;19965;-67
2022/10/29 01:15:22;;;;;;;;;;;20.50;98.10;;;;;;4938616;29;20404;-67
2022/10/29 01:17:53;;;;;;;;;;;20.40;98.00;;;;;;4955549;29;20369;-66
2022/10/29 01:20:28;;;;;;;;;;;20.40;98.00;;;;;;4938045;29;19977;-67
2022/10/29 01:23:23;;;;;;;;;;;20.40;97.60;;;;;;4937176;29;19983;-68
2022/10/29 01:25:58;;;;;;;;;;;20.60;97.60;;;;;;4928051;29;19927;-68
2022/10/29 01:28:30;;;;;;;;;;;20.40;97.60;;;;;;4906307;29;19927;-67
2022/10/29 01:30:59;;;;;;;;;;;20.50;97.60;;;;;;4954804;29;20014;-67
2022/10/29 01:33:31;;;;;;;;;;;20.70;98.00;;;;;;4938622;29;19974;-66
2022/10/29 01:35:57;;;;;;;;;;;20.40;97.60;;;;;;4955044;29;20362;-67
2022/10/29 01:38:24;;;;;;;;;;;20.40;98.10;;;;;;4938389;29;19930;-66
2022/10/29 01:40:52;;;;;;;;;;;20.70;98.20;;;;;;4922854;29;19929;-66
2022/10/29 01:43:25;;;;;;;;;;;20.60;97.60;;;;;;4938684;29;19933;-66
2022/10/29 01:46:01;;;;;;;;;;;20.50;98.00;;;;;;4922628;29;19933;-67
2022/10/29 01:48:30;;;;;;;;;;;20.50;97.90;;;;;;4922339;29;20297;-67
2022/10/29 01:50:56;;;;;;;;;;;20.50;97.50;;;;;;4921669;29;19926;-68
2022/10/29 01:53:22;;;;;;;;;;;20.60;98.10;;;;;;4938472;29;19933;-68
2022/10/29 01:55:47;;;;;;;;;;;20.30;97.80;;;;;;4922648;29;19933;-68
2022/10/29 01:58:13;;;;;;;;;;;20.50;97.90;;;;;;4952116;29;19973;-68
2022/10/29 02:00:57;;;;;;;;;;;20.40;98.20;;;;;;4938426;29;20017;-68
2022/10/29 02:03:27;;;;;;;;;;;20.40;97.40;;;;;;4938546;29;19930;-68
2022/10/29 02:06:01;;;;;;;;;;;20.60;98.10;;;;;;4922547;29;19927;-67
2022/10/29 02:08:27;;;;;;;;;;;20.60;97.40;;;;;;4937451;29;19933;-68
2022/10/29 02:11:06;;;;;;;;;;;20.50;97.80;;;;;;4938668;29;19944;-68
2022/10/29 02:13:33;;;;;;;;;;;20.30;97.30;;;;;;4917437;29;19934;-66
2022/10/29 02:15:59;;;;;;;;;;;20.30;97.70;;;;;;4907415;29;19931;-67
2022/10/29 02:18:24;;;;;;;;;;;20.40;97.80;;;;;;4908533;29;19974;-67
2022/10/29 02:20:50;;;;;;;;;;;20.40;97.70;;;;;;4906629;29;20026;-66
2022/10/29 02:23:16;;;;;;;;;;;20.60;97.80;;;;;;4908980;29;19926;-66
2022/10/29 02:25:42;;;;;;;;;;;20.50;97.80;;;;;;4923114;29;19980;-67
2022/10/29 02:28:07;;;;;;;;;;;19.90;97.60;;;;;;4907586;29;19927;-68
2022/10/29 02:30:33;;;;;;;;;;;19.90;97.60;;;;;;4921880;29;19973;-68
2022/10/29 02:32:59;;;;;;;;;;;20.00;98.00;;;;;;4941792;29;19927;-66
2022/10/29 02:35:24;;;;;;;;;;;20.20;97.80;;;;;;4957869;29;19974;-67
2022/10/29 02:37:50;;;;;;;;;;;20.50;97.90;;;;;;4959046;29;19926;-66
2022/10/29 02:40:16;;;;;;;;;;;20.50;97.90;;;;;;4925394;29;19977;-66
2022/10/29 02:42:41;;;;;;;;;;;20.30;97.80;;;;;;4941867;29;19926;-66
2022/10/29 02:45:07;;;;;;;;;;;20.30;97.70;;;;;;4941460;29;20285;-67
2022/10/29 02:47:33;;;;;;;;;;;20.30;97.60;;;;;;4937924;29;19931;-66
2022/10/29 02:49:58;;;;;;;;;;;20.20;97.80;;;;;;4944954;29;19978;-67
2022/10/29 02:52:24;;;;;;;;;;;20.40;97.80;;;;;;4925750;29;19972;-66
2022/10/29 02:54:49;;;;;;;;;;;20.50;97.80;;;;;;4941702;29;19926;-67
2022/10/29 02:57:15;;;;;;;;;;;20.10;97.70;;;;;;4958569;29;19958;-66
2022/10/29 02:59:41;;;;;;;;;;;20.50;97.80;;;;;;4958252;29;20017;-67
2022/10/29 03:02:06;;;;;;;;;;;20.30;97.70;;;;;;4923008;29;19923;-66
2022/10/29 03:04:32;;;;;;;;;;;20.30;97.70;;;;;;4922374;29;19927;-66
2022/10/29 03:06:57;;;;;;;;;;;20.20;97.60;;;;;;4939634;29;19926;-66
2022/10/29 03:09:23;;;;;;;;;;;20.10;97.50;;;;;;4922364;29;19937;-67
2022/10/29 03:11:49;;;;;;;;;;;20.40;97.60;;;;;;4936307;29;19926;-66
2022/10/29 03:14:14;;;;;;;;;;;20.20;97.60;;;;;;4935893;29;19927;-66
2022/10/29 03:16:40;;;;;;;;;;;20.20;97.60;;;;;;4922340;29;19927;-66
2022/10/29 03:19:06;;;;;;;;;;;20.10;97.60;;;;;;4954043;29;19934;-67
2022/10/29 03:21:31;;;;;;;;;;;20.20;97.60;;;;;;4931831;29;19927;-66
2022/10/29 03:23:57;;;;;;;;;;;20.40;97.60;;;;;;4939795;29;19930;-66
2022/10/29 03:26:22;;;;;;;;;;;20.20;97.60;;;;;;4937401;29;20312;-66
2022/10/29 03:28:48;;;;;;;;;;;20.30;97.60;;;;;;4939030;29;19926;-66
2022/10/29 03:31:13;;;;;;;;;;;20.40;97.60;;;;;;4943304;29;19973;-66
2022/10/29 03:33:39;;;;;;;;;;;20.40;97.60;;;;;;4958121;29;19926;-66
2022/10/29 03:36:05;;;;;;;;;;;20.40;97.50;;;;;;4958381;29;20242;-66
2022/10/29 03:38:31;;;;;;;;;;;20.20;97.40;;;;;;4940145;29;20300;-66
2022/10/29 03:40:56;;;;;;;;;;;20.20;97.40;;;;;;4924486;29;19934;-66
2022/10/29 03:43:22;;;;;;;;;;;20.30;97.40;;;;;;4958421;29;20439;-66
2022/10/29 03:49:09;;;;;;;;;;;20.20;96.90;;;;;;4957750;29;19962;-66
2022/10/29 03:51:35;;;;;;;;;;;20.50;97.50;;;;;;4940233;29;19927;-68
2022/10/29 03:54:01;;;;;;;;;;;20.10;97.50;;;;;;4957719;29;19926;-67
2022/10/29 03:56:26;;;;;;;;;;;20.20;97.30;;;;;;4958479;29;19926;-67
2022/10/29 03:58:52;;;;;;;;;;;20.10;97.30;;;;;;4940835;29;19972;-68
2022/10/29 04:01:17;;;;;;;;;;;20.10;97.40;;;;;;4957528;29;20384;-67
2022/10/29 04:03:43;;;;;;;;;;;20.30;97.50;;;;;;4905030;29;19927;-67
2022/10/29 04:06:12;;;;;;;;;;;19.90;97.40;;;;;;4949672;29;19926;-67
2022/10/29 04:08:38;;;;;;;;;;;20.30;97.40;;;;;;4955312;29;19934;-67
2022/10/29 04:11:03;;;;;;;;;;;20.10;97.40;;;;;;4940156;29;19926;-68
2022/10/29 04:13:29;;;;;;;;;;;20.10;97.50;;;;;;4956216;29;19934;-67
2022/10/29 04:15:55;;;;;;;;;;;20.10;97.20;;;;;;4939056;29;19927;-67
2022/10/29 04:18:22;;;;;;;;;;;20.10;97.40;;;;;;4940387;29;19933;-67
2022/10/29 04:20:47;;;;;;;;;;;20.20;97.40;;;;;;4957246;29;20400;-67
2022/10/29 04:23:13;;;;;;;;;;;20.40;97.20;;;;;;4948469;29;19937;-68
2022/10/29 04:25:38;;;;;;;;;;;20.10;97.10;;;;;;4950372;29;20001;-67
2022/10/29 04:28:04;;;;;;;;;;;20.20;97.10;;;;;;4940284;29;19926;-68
2022/10/29 04:30:30;;;;;;;;;;;18.90;96.90;;;;;;4955710;29;19926;-67
2022/10/29 04:32:58;;;;;;;;;;;20.20;97.10;;;;;;4923230;29;19934;-67
2022/10/29 04:35:24;;;;;;;;;;;20.10;97.30;;;;;;4940104;29;19949;-67
2022/10/29 04:37:50;;;;;;;;;;;20.10;97.00;;;;;;4923319;29;20288;-68
2022/10/29 04:40:16;;;;;;;;;;;20.30;97.10;;;;;;4957006;29;19926;-67
2022/10/29 04:42:41;;;;;;;;;;;20.10;97.00;;;;;;4941990;29;19923;-67
2022/10/29 04:45:07;;;;;;;;;;;20.10;97.00;;;;;;4904682;29;20288;-67
2022/10/29 04:47:33;;;;;;;;;;;20.20;97.10;;;;;;4938144;29;19930;-67
2022/10/29 04:49:58;;;;;;;;;;;20.30;97.10;;;;;;4920755;29;19996;-67
2022/10/29 04:52:24;;;;;;;;;;;20.20;97.00;;;;;;4920744;29;20401;-67
2022/10/29 04:54:50;;;;;;;;;;;20.00;97.00;;;;;;4931610;29;20285;-68
2022/10/29 04:57:15;;;;;;;;;;;20.00;97.00;;;;;;4932176;29;20003;-67
2022/10/29 04:59:41;;;;;;;;;;;20.10;97.00;;;;;;4955267;29;19934;-68
2022/10/29 05:02:06;;;;;;;;;;;20.30;97.10;;;;;;4938433;29;19927;-67
2022/10/29 05:04:32;;;;;;;;;;;20.00;97.00;;;;;;4938770;29;20274;-67
2022/10/29 05:06:58;;;;;;;;;;;20.40;97.10;;;;;;4923437;29;19934;-67
2022/10/29 05:09:23;;;;;;;;;;;20.20;97.00;;;;;;4923585;29;19973;-68
2022/10/29 05:11:49;;;;;;;;;;;20.20;97.00;;;;;;4955394;29;19970;-67
2022/10/29 05:14:15;;;;;;;;;;;20.00;96.90;;;;;;4933891;29;19927;-67
2022/10/29 05:16:40;;;;;;;;;;;20.20;97.00;;;;;;4920177;29;20022;-67
2022/10/29 05:19:06;;;;;;;;;;;20.20;97.00;;;;;;4920305;29;19934;-67
2022/10/29 05:21:31;;;;;;;;;;;20.20;97.20;;;;;;4928703;29;20336;-68
2022/10/29 05:23:57;;;;;;;;;;;20.30;97.00;;;;;;4922663;29;19926;-67
2022/10/29 05:26:23;;;;;;;;;;;20.40;97.20;;;;;;4922512;29;19936;-67
2022/10/29 05:28:49;;;;;;;;;;;20.30;97.00;;;;;;4938157;29;20295;-67
2022/10/29 05:31:15;;;;;;;;;;;20.30;97.00;;;;;;4938458;29;19927;-67
2022/10/29 05:33:41;;;;;;;;;;;19.90;96.90;;;;;;4938673;29;20300;-67
2022/10/29 05:36:06;;;;;;;;;;;20.20;97.00;;;;;;4955094;29;19927;-67
2022/10/29 05:38:32;;;;;;;;;;;20.20;97.00;;;;;;4938786;29;19930;-67
2022/10/29 05:40:58;;;;;;;;;;;20.10;97.30;;;;;;4938424;29;19926;-67
2022/10/29 05:43:23;;;;;;;;;;;20.20;96.90;;;;;;4938963;29;19933;-67
2022/10/29 05:45:49;;;;;;;;;;;20.00;96.90;;;;;;4937930;29;19926;-67
2022/10/29 05:48:15;;;;;;;;;;;20.10;97.10;;;;;;4954335;29;20308;-67
2022/10/29 05:50:40;;;;;;;;;;;20.20;97.00;;;;;;4938615;29;19934;-67
2022/10/29 05:53:06;;;;;;;;;;;20.30;97.00;;;;;;4938308;29;19926;-66
2022/10/29 05:55:32;;;;;;;;;;;20.40;97.30;;;;;;4902832;29;19930;-68
2022/10/29 05:57:58;;;;;;;;;;;20.20;97.20;;;;;;4918327;29;20393;-67
2022/10/29 06:00:27;;;;;;;;;;;20.20;97.00;;;;;;4923771;29;20331;-67
2022/10/29 06:02:53;;;;;;;;;;;20.10;97.00;;;;;;4955543;29;19931;-67
2022/10/29 06:05:19;;;;;;;;;;;20.50;97.30;;;;;;4937318;29;19934;-66
2022/10/29 06:07:44;;;;;;;;;;;20.40;97.10;;;;;;4922567;29;20380;-67
2022/10/29 06:10:10;;;;;;;;;;;19.30;96.80;;;;;;4922640;29;20407;-67
2022/10/29 06:12:36;;;;;;;;;;;20.40;97.20;;;;;;4922841;29;19930;-67
2022/10/29 06:15:01;;;;;;;;;;;20.10;97.10;;;;;;4937110;29;19965;-66
2022/10/29 06:17:27;;;;;;;;;;;20.40;97.00;;;;;;4919562;29;19927;-67
2022/10/29 06:19:53;;;;;;;;;;;20.30;97.00;;;;;;4936310;29;20303;-67
2022/10/29 06:22:18;;;;;;;;;;;20.50;97.20;;;;;;4931790;29;19927;-67
2022/10/29 06:24:44;;;;;;;;;;;19.90;96.90;;;;;;4955402;29;19984;-67
2022/10/29 06:27:09;;;;;;;;;;;20.30;97.00;;;;;;4954552;29;19934;-67
2022/10/29 06:29:35;;;;;;;;;;;20.20;97.00;;;;;;4954898;29;19931;-67
2022/10/29 06:32:01;;;;;;;;;;;20.20;96.90;;;;;;4938441;29;19927;-67
2022/10/29 06:34:26;;;;;;;;;;;20.10;96.90;;;;;;4938099;29;20384;-66
2022/10/29 06:36:52;;;;;;;;;;;20.20;96.90;;;;;;4937412;29;19937;-66
2022/10/29 06:39:17;;;;;;;;;;;20.20;97.00;;;;;;4955336;29;19933;-67
2022/10/29 06:41:43;;;;;;;;;;;20.10;97.00;;;;;;4955517;29;19949;-66
2022/10/29 06:44:09;;;;;;;;;;;20.00;97.00;;;;;;4955258;29;19933;-65
2022/10/29 06:46:34;;;;;;;;;;;20.30;97.10;;;;;;4954458;29;19929;-65
2022/10/29 06:49:01;;;;;;;;;;;20.50;97.10;;;;;;4938073;29;19933;-66
2022/10/29 06:51:27;;;;;;;;;;;20.00;96.90;;;;;;4955071;29;19974;-66
2022/10/29 06:53:53;;;;;;;;;;;20.20;97.00;;;;;;4955413;29;19930;-66
2022/10/29 06:56:19;;;;;;;;;;;20.20;97.10;;;;;;4954465;28;19930;-66
2022/10/29 06:58:45;;;;;;;;;;;20.10;97.10;;;;;;4936285;29;19927;-66
2022/10/29 07:01:10;;;;;;;;;;;20.40;97.10;;;;;;4921751;29;20001;-65
2022/10/29 07:03:36;;;;;;;;;;;20.10;97.00;;;;;;4933317;29;19982;-66
2022/10/29 07:06:01;;;;;;;;;;;20.40;97.10;;;;;;4936366;29;20297;-66
2022/10/29 07:08:27;;;;;;;;;;;20.00;96.90;;;;;;4936468;29;19973;-66
2022/10/29 07:10:53;;;;;;;;;;;20.20;97.00;;;;;;4941235;29;20497;-67
2022/10/29 07:13:19;;;;;;;;;;;20.00;97.00;;;;;;4941046;29;19973;-67
2022/10/29 07:15:44;;;;;;;;;;;20.40;97.00;;;;;;4938049;29;19937;-66
2022/10/29 07:18:10;;;;;;;;;;;20.10;97.00;;;;;;4956447;29;19926;-66
2022/10/29 07:20:36;;;;;;;;;;;20.50;97.10;;;;;;4925059;29;19996;-67
2022/10/29 07:23:02;;;;;;;;;;;20.50;97.10;;;;;;4941134;29;19955;-67
2022/10/29 07:25:28;;;;;;;;;;;20.20;96.90;;;;;;4956231;29;20200;-66
2022/10/29 07:27:53;;;;;;;;;;;20.50;97.00;;;;;;4924745;29;19934;-67
2022/10/29 07:30:19;;;;;;;;;;;20.10;96.80;;;;;;4957928;29;20459;-67
2022/10/29 07:32:45;;;;;;;;;;;20.20;97.10;;;;;;4925071;29;19926;-67
2022/10/29 07:35:10;;;;;;;;;;;20.20;97.20;;;;;;4940933;29;19926;-67
2022/10/29 07:37:36;;;;;;;;;;;20.30;97.10;;;;;;4923224;29;20343;-67
2022/10/29 07:40:02;;;;;;;;;;;20.30;96.90;;;;;;4907208;29;19927;-67
2022/10/29 07:42:27;;;;;;;;;;;18.70;96.50;;;;;;4922125;29;20432;-67
2022/10/29 07:44:53;;;;;;;;;;;20.20;97.30;;;;;;4905827;29;19949;-67
2022/10/29 07:47:19;;;;;;;;;;;20.20;97.10;;;;;;4933838;29;19948;-67
2022/10/29 07:49:44;;;;;;;;;;;20.60;97.30;;;;;;4939858;29;19973;-67
2022/10/29 07:52:10;;;;;;;;;;;20.50;96.90;;;;;;4940605;29;19970;-65
2022/10/29 07:54:36;;;;;;;;;;;20.50;97.00;;;;;;4957946;29;19986;-66
2022/10/29 07:57:01;;;;;;;;;;;20.40;96.90;;;;;;4957674;29;20370;-66
2022/10/29 07:59:27;;;;;;;;;;;20.30;97.00;;;;;;4939773;29;19935;-66
2022/10/29 08:01:52;;;;;;;;;;;20.50;97.00;;;;;;4939977;29;19926;-66
2022/10/29 08:04:18;;;;;;;;;;;20.70;97.30;;;;;;4957717;29;19927;-65
2022/10/29 08:06:44;;;;;;;;;;;20.20;96.90;;;;;;4957348;29;19977;-66
2022/10/29 08:09:10;;;;;;;;;;;20.40;97.00;;;;;;4935435;29;19927;-66
2022/10/29 08:11:35;;;;;;;;;;;20.30;97.00;;;;;;4936455;29;20029;-65
2022/10/29 08:14:01;;;;;;;;;;;20.50;97.10;;;;;;4937209;29;20017;-66
2022/10/29 08:16:27;;;;;;;;;;;20.70;96.90;;;;;;4957114;29;19930;-65
2022/10/29 08:18:52;;;;;;;;;;;20.60;97.00;;;;;;4956669;29;19937;-68
2022/10/29 08:21:18;;;;;;;;;;;20.40;96.90;;;;;;4929053;29;19948;-66
2022/10/29 08:23:43;;;;;;;;;;;20.30;96.90;;;;;;4940296;29;19927;-66
2022/10/29 08:26:09;;;;;;;;;;;20.70;96.90;;;;;;4957467;29;19934;-66
2022/10/29 08:28:35;;;;;;;;;;;20.50;96.90;;;;;;4938695;29;19937;-65
2022/10/29 08:31:00;;;;;;;;;;;20.50;96.90;;;;;;4948901;29;19927;-66
2022/10/29 08:33:26;;;;;;;;;;;20.40;96.80;;;;;;4939088;29;19934;-66
2022/10/29 08:35:53;;;;;;;;;;;20.70;96.90;;;;;;4939750;29;19930;-66
2022/10/29 08:38:22;;;;;;;;;;;20.60;96.90;;;;;;4912264;29;19933;-66
2022/10/29 08:40:50;;;;;;;;;;;20.40;96.90;;;;;;4952803;29;19934;-66
2022/10/29 08:43:25;;;;;;;;;;;20.30;96.30;;;;;;4937531;29;20013;-66
2022/10/29 08:45:52;;;;;;;;;;;20.60;96.40;;;;;;4937472;29;19982;-66
2022/10/29 08:48:32;;;;;;;;;;;20.40;96.90;;;;;;4920583;29;19927;-66
2022/10/29 08:51:00;;;;;;;;;;;20.40;96.30;;;;;;4936604;29;20281;-66
2022/10/29 08:53:35;;;;;;;;;;;20.70;96.90;;;;;;4929936;29;19927;-66
2022/10/29 08:56:02;;;;;;;;;;;20.50;96.90;;;;;;4956449;29;19989;-66
2022/10/29 08:58:36;;;;;;;;;;;20.40;96.80;;;;;;4939709;29;19927;-66
2022/10/29 09:01:01;;;;;;;;;;;20.50;96.20;;;;;;4922816;29;19927;-66
2022/10/29 09:03:28;;;;;;;;;;;20.70;96.80;;;;;;4938896;29;19933;-65
2022/10/29 09:06:00;;;;;;;;;;;20.40;96.70;;;;;;4938690;29;19933;-66
2022/10/29 09:08:30;;;;;;;;;;;20.30;95.90;;;;;;4922681;29;19982;-66
2022/10/29 09:10:56;;;;;;;;;;;20.70;96.90;;;;;;4923358;29;19980;-66
2022/10/29 09:13:31;;;;;;;;;;;20.50;96.70;;;;;;4920157;29;19978;-66
2022/10/29 09:16:04;;;;;;;;;;;20.50;96.20;;;;;;4919864;29;20423;-65
2022/10/29 09:18:45;;;;;;;;;;;20.50;96.20;;;;;;4937059;29;20377;-66
2022/10/29 09:21:17;;;;;;;;;;;20.50;96.20;;;;;;4929311;29;20013;-67
2022/10/29 09:23:52;;;;;;;;;;;20.70;96.20;;;;;;4936982;29;20009;-67
2022/10/29 09:26:22;;;;;;;;;;;19.30;95.90;;;;;;4956326;29;20006;-67
2022/10/29 09:28:59;;;;;;;;;;;20.50;96.90;;;;;;4939102;29;19927;-67
2022/10/29 09:31:31;;;;;;;;;;;20.50;96.20;;;;;;4939470;29;20363;-68
2022/10/29 09:33:57;;;;;;;;;;;20.80;96.30;;;;;;4944901;29;19927;-67
2022/10/29 09:36:22;;;;;;;;;;;20.40;96.50;;;;;;4935947;29;19994;-67
2022/10/29 09:38:51;;;;;;;;;;;20.50;96.80;;;;;;4919449;29;20021;-67
2022/10/29 09:41:17;;;;;;;;;;;20.80;96.20;;;;;;4919811;29;19934;-67
2022/10/29 09:43:48;;;;;;;;;;;20.90;96.70;;;;;;4926120;29;20300;-65
2022/10/29 09:46:27;;;;;;;;;;;20.80;96.30;;;;;;4955788;29;19973;-65
2022/10/29 09:48:53;;;;;;;;;;;20.80;96.20;;;;;;4956059;29;19951;-66
2022/10/29 09:51:30;;;;;;;;;;;20.60;96.70;;;;;;4956032;29;19927;-65
2022/10/29 09:53:55;;;;;;;;;;;20.40;96.10;;;;;;4937774;29;20013;-66
2022/10/29 09:56:21;;;;;;;;;;;20.70;96.70;;;;;;4954787;29;19969;-65
2022/10/29 09:58:51;;;;;;;;;;;20.50;96.80;;;;;;4922992;29;19926;-65
2022/10/29 10:01:17;;;;;;;;;;;20.90;97.20;;;;;;4926101;28;20463;-66
2022/10/29 10:03:45;;;;;;;;;;;20.80;96.80;;;;;;4956416;28;20005;-66
2022/10/29 10:06:12;;;;;;;;;;;21.00;96.90;;;;;;4923263;29;19933;-66
2022/10/29 10:08:56;;;;;;;;;;;20.30;96.80;;;;;;4922581;29;20308;-67
2022/10/29 10:11:21;;;;;;;;;;;21.00;96.40;;;;;;4937575;29;19985;-64
2022/10/29 10:13:51;;;;;;;;;;;20.70;96.80;;;;;;4934858;29;19926;-66
2022/10/29 10:16:24;;;;;;;;;;;20.90;96.30;;;;;;4913368;29;20270;-66
2022/10/29 10:18:49;;;;;;;;;;;21.10;96.40;;;;;;4938606;29;19926;-65
2022/10/29 10:21:25;;;;;;;;;;;20.90;96.90;;;;;;4903650;29;19927;-66
2022/10/29 10:23:51;;;;;;;;;;;20.70;96.30;;;;;;4903486;29;20045;-67
2022/10/29 10:26:35;;;;;;;;;;;20.60;96.80;;;;;;4932142;29;19934;-66
2022/10/29 10:29:20;;;;;;;;;;;21.10;96.40;;;;;;4935863;29;20287;-66
2022/10/29 10:31:46;;;;;;;;;;;20.80;96.30;;;;;;4921675;29;19930;-65
2022/10/29 10:34:12;;;;;;;;;;;20.90;96.90;;;;;;4922347;29;20025;-66
2022/10/29 10:36:38;;;;;;;;;;;20.90;96.60;;;;;;4941693;29;19933;-66
2022/10/29 10:39:03;;;;;;;;;;;21.10;96.80;;;;;;4925511;29;19949;-66
2022/10/29 10:41:29;;;;;;;;;;;21.10;96.70;;;;;;4926088;29;19927;-66
2022/10/29 10:43:57;;;;;;;;;;;20.90;96.70;;;;;;4926026;29;19931;-66
2022/10/29 10:46:24;;;;;;;;;;;21.10;96.80;;;;;;4925999;29;19923;-66
2022/10/29 10:48:56;;;;;;;;;;;20.80;96.70;;;;;;4954520;29;19935;-65
2022/10/29 10:51:26;;;;;;;;;;;21.00;96.10;;;;;;4921922;29;19927;-66
2022/10/29 10:53:51;;;;;;;;;;;20.90;96.70;;;;;;4931232;29;19927;-66
2022/10/29 10:56:18;;;;;;;;;;;21.10;96.60;;;;;;4940954;29;19950;-66
2022/10/29 10:58:49;;;;;;;;;;;20.90;96.70;;;;;;4941175;29;19965;-67
2022/10/29 11:01:23;;;;;;;;;;;21.00;96.00;;;;;;4941987;29;19926;-66
2022/10/29 11:04:00;;;;;;;;;;;21.10;96.00;;;;;;4926106;29;19962;-66
2022/10/29 11:06:36;;;;;;;;;;;21.20;96.00;;;;;;4941677;29;19927;-67
2022/10/29 11:09:11;;;;;;;;;;;21.40;96.10;;;;;;4925179;29;19931;-67
2022/10/29 11:11:45;;;;;;;;;;;21.20;96.00;;;;;;4940557;29;20135;-66
2022/10/29 11:14:17;;;;;;;;;;;21.20;96.00;;;;;;4925425;29;20013;-66
2022/10/29 11:16:45;;;;;;;;;;;21.40;96.10;;;;;;4925621;29;19926;-66
2022/10/29 11:19:26;;;;;;;;;;;21.20;96.60;;;;;;4924917;29;19934;-65
2022/10/29 11:21:55;;;;;;;;;;;21.30;96.10;;;;;;4925326;29;19926;-67
2022/10/29 11:24:23;;;;;;;;;;;21.20;96.00;;;;;;4941360;29;19926;-66
2022/10/29 11:26:51;;;;;;;;;;;21.60;96.80;;;;;;4940317;29;19927;-65
2022/10/29 11:29:17;;;;;;;;;;;21.40;96.00;;;;;;4922312;29;20297;-66
2022/10/29 11:31:43;;;;;;;;;;;21.20;96.40;;;;;;4938601;29;19934;-65
2022/10/29 11:34:16;;;;;;;;;;;21.60;96.60;;;;;;4941073;29;19926;-65
2022/10/29 11:36:52;;;;;;;;;;;21.30;96.00;;;;;;4925363;29;19990;-66
2022/10/29 11:39:40;;;;;;;;;;;21.60;96.70;;;;;;4940304;29;20293;-66
2022/10/29 11:42:08;;;;;;;;;;;21.70;96.10;;;;;;4940818;29;19926;-66
2022/10/29 11:44:36;;;;;;;;;;;21.60;96.30;;;;;;4935030;29;20352;-66
2022/10/29 11:47:02;;;;;;;;;;;21.70;96.50;;;;;;4937193;29;19931;-66
2022/10/29 11:49:27;;;;;;;;;;;21.90;96.40;;;;;;4928231;29;19933;-66
2022/10/29 11:51:56;;;;;;;;;;;21.90;96.50;;;;;;4953087;29;19934;-70
2022/10/29 11:54:40;;;;;;;;;;;21.60;95.80;;;;;;4956769;29;20038;-68
2022/10/29 11:57:21;;;;;;;;;;;20.50;95.50;;;;;;4924814;29;20009;-68
2022/10/29 11:59:50;;;;;;;;;;;21.90;95.90;;;;;;4937537;29;19926;-68
2022/10/29 12:02:20;;;;;;;;;;;20.60;95.30;;;;;;4933463;29;19932;-69
2022/10/29 12:04:47;;;;;;;;;;;21.70;96.30;;;;;;4956451;29;19927;-69
2022/10/29 12:07:12;;;;;;;;;;;21.90;96.10;;;;;;4956078;29;19930;-69
2022/10/29 12:09:44;;;;;;;;;;;22.20;95.80;;;;;;4972352;28;20021;-70
2022/10/29 12:12:16;;;;;;;;;;;22.30;95.40;;;;;;4957383;29;20443;-69
2022/10/29 12:14:43;;;;;;;;;;;22.00;95.10;;;;;;4940108;29;19926;-70
2022/10/29 12:17:35;;;;;;;;;;;22.00;95.80;;;;;;4972551;28;19931;-69
2022/10/29 12:20:13;;;;;;;;;;;22.00;95.10;;;;;;4920273;29;19982;-69
2022/10/29 12:22:42;;;;;;;;;;;22.00;95.20;;;;;;4937105;29;19926;-69
2022/10/29 12:25:26;;;;;;;;;;;21.60;95.10;;;;;;4937957;29;19982;-69
2022/10/29 12:28:01;;;;;;;;;;;22.10;95.30;;;;;;4921215;29;19931;-68
2022/10/29 12:30:26;;;;;;;;;;;21.90;95.30;;;;;;4942522;29;20029;-70
2022/10/29 12:33:11;;;;;;;;;;;22.00;96.10;;;;;;4924156;29;20033;-68
2022/10/29 12:35:39;;;;;;;;;;;21.80;95.30;;;;;;4939408;29;20479;-69
2022/10/29 12:38:05;;;;;;;;;;;22.00;95.40;;;;;;4940086;29;19926;-69
2022/10/29 12:40:32;;;;;;;;;;;21.90;95.90;;;;;;4972096;28;20361;-69
2022/10/29 12:42:59;;;;;;;;;;;21.90;96.10;;;;;;4955655;29;19933;-68
2022/10/29 12:45:28;;;;;;;;;;;21.80;96.10;;;;;;4955422;29;20017;-69
2022/10/29 12:47:54;;;;;;;;;;;21.60;96.20;;;;;;4955603;29;19926;-70
2022/10/29 12:50:35;;;;;;;;;;;21.80;96.40;;;;;;4971591;28;19978;-70
2022/10/29 12:53:03;;;;;;;;;;;21.60;95.50;;;;;;4954696;29;19926;-69
2022/10/29 12:55:29;;;;;;;;;;;21.80;96.20;;;;;;4955401;29;19970;-68
2022/10/29 12:57:54;;;;;;;;;;;21.60;96.10;;;;;;4938698;29;19973;-69
2022/10/29 13:00:23;;;;;;;;;;;21.90;96.20;;;;;;4936319;28;19934;-67
2022/10/29 13:02:52;;;;;;;;;;;22.00;95.70;;;;;;4938588;29;19930;-69
2022/10/29 13:05:18;;;;;;;;;;;21.70;95.60;;;;;;4939329;29;19930;-69
2022/10/29 13:07:43;;;;;;;;;;;21.60;96.10;;;;;;4938292;29;19928;-69
2022/10/29 13:10:22;;;;;;;;;;;22.00;96.10;;;;;;4955024;29;19974;-69
2022/10/29 13:12:54;;;;;;;;;;;21.90;95.70;;;;;;4938264;29;19933;-68
2022/10/29 13:15:40;;;;;;;;;;;21.70;95.70;;;;;;4955615;28;20110;-69
2022/10/29 13:18:11;;;;;;;;;;;21.60;95.70;;;;;;4920360;29;19991;-67
2022/10/29 13:20:38;;;;;;;;;;;21.50;95.80;;;;;;4933409;29;20024;-68
2022/10/29 13:23:36;;;;;;;;;;;21.40;96.30;;;;;;4921082;29;19927;-69
2022/10/29 13:26:02;;;;;;;;;;;21.60;95.80;;;;;;4918518;29;19937;-64
2022/10/29 13:28:28;;;;;;;;;;;21.70;96.60;;;;;;4923445;29;20032;-65
2022/10/29 13:31:03;;;;;;;;;;;21.70;96.40;;;;;;4950228;28;19985;-69
2022/10/29 13:33:28;;;;;;;;;;;21.70;96.00;;;;;;4946964;28;19983;-69
2022/10/29 13:35:54;;;;;;;;;;;21.70;96.50;;;;;;4949857;29;19926;-69
2022/10/29 13:38:38;;;;;;;;;;;21.70;96.70;;;;;;4938632;29;20452;-69
2022/10/29 13:41:12;;;;;;;;;;;21.60;96.00;;;;;;4938863;29;19926;-67
2022/10/29 13:43:37;;;;;;;;;;;22.00;96.20;;;;;;4922139;29;19980;-70
2022/10/29 13:46:12;;;;;;;;;;;21.70;96.70;;;;;;4922000;29;19930;-69
2022/10/29 13:48:38;;;;;;;;;;;21.50;96.10;;;;;;4938584;29;19941;-68
2022/10/29 13:51:05;;;;;;;;;;;21.40;96.60;;;;;;4955934;29;19927;-69
2022/10/29 13:53:34;;;;;;;;;;;21.50;96.70;;;;;;4937862;29;19926;-69
2022/10/29 13:55:59;;;;;;;;;;;21.70;96.80;;;;;;4938894;29;19973;-70
2022/10/29 13:58:30;;;;;;;;;;;21.50;96.70;;;;;;4955962;29;19993;-69
2022/10/29 14:00:56;;;;;;;;;;;21.40;96.80;;;;;;4929588;29;19927;-69
2022/10/29 14:03:37;;;;;;;;;;;21.50;96.80;;;;;;4919203;29;20424;-68
2022/10/29 14:06:16;;;;;;;;;;;21.80;96.30;;;;;;4914226;29;20293;-69
2022/10/29 14:08:49;;;;;;;;;;;21.50;96.30;;;;;;4913377;29;19930;-69
2022/10/29 14:11:28;;;;;;;;;;;21.40;96.30;;;;;;4941031;29;19963;-70
2022/10/29 14:13:57;;;;;;;;;;;21.30;96.30;;;;;;4941818;29;19926;-69
2022/10/29 14:16:23;;;;;;;;;;;21.40;96.90;;;;;;4942453;29;19927;-69
2022/10/29 14:18:49;;;;;;;;;;;21.50;96.90;;;;;;4919363;29;19930;-69
2022/10/29 14:21:15;;;;;;;;;;;21.50;96.90;;;;;;4939756;29;19926;-69
2022/10/29 14:23:52;;;;;;;;;;;21.40;96.90;;;;;;4942099;29;19950;-70
2022/10/29 14:26:18;;;;;;;;;;;21.70;97.10;;;;;;4942133;29;19926;-68